Harrisville, New York
Current Conditions -  °F | °C
As of 9:58 AM on Saturday 25 Oct 2014 (Local Time) from KGTB Reporting Station
Scattered Clouds Scattered Clouds  
Wind Chill: 51°   Ceiling: Unl
Heat Index: 51°   Visibility: 10mi
Dew Point: 45°   Wind: 8mph
Humidity: 82%   Direction: 210°SSW
Pressure: 29.75"   Gusts: NA
Location:  44.15°N, 75.32°W
Report Text: KGTB 251358Z AUTO 21007KT 10SM SCT037 SCT055 10/07 A2975 RMK AO2 SLP077 T01040074
Loading
Personal Weather Stations






























Interactive Weather Map
Tropical Storm Tracking
New forecast layout! Learn more

10-Day Weather Forecast

Advertisements
Track Severe Weather on mobile